createdAt,value
2022-09-04T00:00:10.064Z,18.50
2022-09-04T00:03:04.760Z,18.40
2022-09-04T00:05:38.224Z,18.20
2022-09-04T00:08:23.382Z,18.20
2022-09-04T00:11:12.423Z,17.90
2022-09-04T00:14:01.093Z,18.10
2022-09-04T00:16:43.367Z,18.20
2022-09-04T00:19:19.480Z,18.30
2022-09-04T00:21:57.379Z,18.40
2022-09-04T00:24:40.999Z,18.30
2022-09-04T00:27:14.399Z,18.40
2022-09-04T00:29:50.478Z,18.40
2022-09-04T00:32:25.150Z,18.20
2022-09-04T00:35:14.614Z,18.10
2022-09-04T00:37:49.043Z,17.90
2022-09-04T00:40:39.814Z,17.90
2022-09-04T00:43:26.489Z,17.90
2022-09-04T00:46:21.374Z,18.00
2022-09-04T00:49:08.430Z,18.00
2022-09-04T00:51:56.914Z,18.10
2022-09-04T00:54:45.720Z,18.10
2022-09-04T00:57:40.010Z,18.00
2022-09-04T01:00:17.924Z,17.90
2022-09-04T01:03:03.204Z,17.90
2022-09-04T01:05:40.529Z,17.80
2022-09-04T01:08:16.579Z,17.60
2022-09-04T01:10:51.921Z,17.50
2022-09-04T01:13:47.749Z,17.50
2022-09-04T01:16:28.010Z,17.50
2022-09-04T01:19:21.682Z,17.70
2022-09-04T01:22:16.687Z,17.70
2022-09-04T01:25:01.936Z,17.70
2022-09-04T01:27:33.118Z,17.70
2022-09-04T01:30:10.640Z,17.80
2022-09-04T01:33:03.057Z,17.80
2022-09-04T01:35:56.435Z,17.80
2022-09-04T01:38:27.043Z,17.70
2022-09-04T01:41:01.803Z,17.80
2022-09-04T01:43:29.253Z,17.80
2022-09-04T01:46:15.955Z,17.70
2022-09-04T01:49:23.475Z,17.60
2022-09-04T01:52:07.951Z,17.60
2022-09-04T01:54:54.382Z,17.70
2022-09-04T01:57:48.139Z,17.70
2022-09-04T02:00:22.946Z,17.70
2022-09-04T02:03:02.747Z,17.70
2022-09-04T02:05:48.728Z,17.50
2022-09-04T02:08:47.218Z,17.40
2022-09-04T02:11:27.921Z,17.40
2022-09-04T02:14:22.270Z,17.40
2022-09-04T02:17:04.778Z,17.30
2022-09-04T02:20:11.177Z,17.20
2022-09-04T02:22:53.191Z,17.10
2022-09-04T02:25:26.642Z,17.10
2022-09-04T02:28:16.692Z,17.10
2022-09-04T02:30:54.544Z,17.10
2022-09-04T02:33:43.195Z,16.90
2022-09-04T02:36:31.511Z,16.90
2022-09-04T02:39:01.786Z,17.00
2022-09-04T02:41:51.102Z,16.90
2022-09-04T02:44:47.809Z,16.90
2022-09-04T02:47:33.052Z,17.00
2022-09-04T02:50:21.663Z,16.90
2022-09-04T02:53:08.378Z,16.90
2022-09-04T02:55:53.096Z,17.00
2022-09-04T02:58:23.102Z,17.00
2022-09-04T03:01:13.362Z,17.00
2022-09-04T03:04:31.016Z,17.10
2022-09-04T03:06:58.086Z,17.00
2022-09-04T03:09:50.683Z,16.90
2022-09-04T03:12:38.197Z,16.90
2022-09-04T03:15:20.675Z,16.90
2022-09-04T03:18:31.072Z,17.00
2022-09-04T03:21:12.524Z,16.80
2022-09-04T03:24:03.066Z,16.80
2022-09-04T03:26:36.318Z,16.70
2022-09-04T03:29:15.340Z,16.60
2022-09-04T03:32:16.282Z,16.70
2022-09-04T03:34:54.157Z,16.80
2022-09-04T03:37:42.889Z,16.80
2022-09-04T03:40:11.719Z,16.80
2022-09-04T03:43:01.740Z,16.70
2022-09-04T03:45:42.860Z,16.60
2022-09-04T03:48:30.937Z,16.70
2022-09-04T03:50:59.337Z,16.60
2022-09-04T03:53:45.857Z,16.50
2022-09-04T03:56:50.442Z,16.40
2022-09-04T03:59:30.720Z,16.40
2022-09-04T04:02:06.764Z,16.50
2022-09-04T04:04:44.169Z,16.50
2022-09-04T04:07:13.335Z,16.50
2022-09-04T04:10:13.591Z,16.50
2022-09-04T04:13:12.686Z,16.50
2022-09-04T04:16:01.902Z,16.40
2022-09-04T04:18:53.555Z,16.50
2022-09-04T04:21:54.932Z,16.50
2022-09-04T04:24:39.241Z,16.50
2022-09-04T04:27:09.074Z,16.50
2022-09-04T04:30:03.670Z,16.40
2022-09-04T04:32:57.409Z,16.30
2022-09-04T04:36:08.137Z,16.30
2022-09-04T04:38:53.469Z,16.30
2022-09-04T04:42:06.707Z,16.40
2022-09-04T04:45:06.729Z,16.40
2022-09-04T04:47:51.709Z,16.40
2022-09-04T04:50:30.058Z,16.20
2022-09-04T04:53:09.852Z,16.20
2022-09-04T04:55:50.538Z,16.20
2022-09-04T04:58:34.316Z,16.30
2022-09-04T05:01:30.253Z,16.30
2022-09-04T05:04:23.177Z,16.20
2022-09-04T05:07:21.860Z,16.30
2022-09-04T05:10:37.640Z,16.30
2022-09-04T05:13:34.914Z,16.30
2022-09-04T05:16:25.662Z,16.30
2022-09-04T05:19:32.753Z,16.20
2022-09-04T05:22:24.457Z,16.20
2022-09-04T05:25:20.845Z,16.10
2022-09-04T05:28:03.358Z,16.10
2022-09-04T05:31:07.443Z,16.10
2022-09-04T05:34:04.621Z,16.10
2022-09-04T05:36:47.412Z,16.10
2022-09-04T05:40:01.987Z,16.00
2022-09-04T05:42:45.786Z,16.00
2022-09-04T05:45:35.389Z,16.10
2022-09-04T05:48:30.586Z,16.10
2022-09-04T05:51:30.578Z,16.20
2022-09-04T05:54:59.282Z,16.20
2022-09-04T05:58:05.117Z,16.10
2022-09-04T06:01:13.626Z,16.30
2022-09-04T06:04:03.011Z,16.30
2022-09-04T06:06:40.814Z,16.10
2022-09-04T06:09:40.707Z,16.20
2022-09-04T06:12:21.691Z,16.30
2022-09-04T06:15:10.242Z,16.40
2022-09-04T06:18:24.071Z,16.40
2022-09-04T06:21:18.616Z,16.40
2022-09-04T06:24:10.697Z,16.50
2022-09-04T06:27:14.852Z,16.40
2022-09-04T06:30:09.299Z,16.30
2022-09-04T06:32:54.728Z,16.40
2022-09-04T06:35:50.116Z,16.50
2022-09-04T06:39:00.831Z,16.60
2022-09-04T06:42:01.888Z,16.60
2022-09-04T06:44:56.589Z,16.70
2022-09-04T06:48:09.782Z,16.70
2022-09-04T06:51:03.230Z,16.70
2022-09-04T06:54:08.158Z,16.80
2022-09-04T06:57:16.885Z,16.90
2022-09-04T06:59:51.181Z,16.80
2022-09-04T07:03:04.858Z,16.90
2022-09-04T07:05:54.676Z,17.00
2022-09-04T07:08:53.166Z,17.20
2022-09-04T07:11:33.858Z,17.40
2022-09-04T07:15:05.228Z,17.50
2022-09-04T07:17:39.660Z,17.70
2022-09-04T07:20:46.274Z,18.00
2022-09-04T07:23:16.417Z,18.20
2022-09-04T07:26:03.564Z,18.50
2022-09-04T07:28:42.793Z,18.80
2022-09-04T07:31:20.574Z,18.70
2022-09-04T07:34:26.159Z,18.70
2022-09-04T07:37:09.409Z,18.80
2022-09-04T07:39:57.249Z,18.90
2022-09-04T07:42:33.164Z,19.10
2022-09-04T07:45:09.013Z,19.40
2022-09-04T07:47:47.851Z,19.50
2022-09-04T07:50:20.526Z,19.70
2022-09-04T07:53:16.651Z,19.40
2022-09-04T07:55:51.138Z,19.70
2022-09-04T07:58:31.780Z,20.00
2022-09-04T08:01:10.553Z,19.90
2022-09-04T08:04:25.501Z,20.10
2022-09-04T08:07:03.186Z,20.30
2022-09-04T08:09:50.837Z,20.50
2022-09-04T08:12:44.857Z,20.70
2022-09-04T08:15:21.949Z,20.80
2022-09-04T08:17:49.096Z,20.90
2022-09-04T08:20:43.832Z,20.80
2022-09-04T08:23:24.712Z,21.00
2022-09-04T08:26:16.100Z,21.20
2022-09-04T08:28:49.057Z,21.30
2022-09-04T08:31:54.095Z,21.40
2022-09-04T08:34:21.379Z,21.40
2022-09-04T08:37:26.210Z,21.50
2022-09-04T08:40:12.172Z,21.80
2022-09-04T08:43:15.945Z,21.90
2022-09-04T08:46:15.269Z,22.00
2022-09-04T08:48:54.288Z,22.00
2022-09-04T08:51:31.131Z,22.10
2022-09-04T08:54:43.092Z,22.20
2022-09-04T08:57:22.645Z,22.30
2022-09-04T09:00:15.263Z,22.50
2022-09-04T09:03:09.533Z,22.80
2022-09-04T09:05:58.033Z,22.70
2022-09-04T09:08:44.583Z,23.00
2022-09-04T09:11:46.888Z,23.00
2022-09-04T09:14:22.085Z,23.20
2022-09-04T09:17:12.430Z,23.10
2022-09-04T09:19:40.013Z,23.30
2022-09-04T09:22:23.886Z,23.30
2022-09-04T09:25:01.980Z,23.40
2022-09-04T09:27:42.869Z,23.40
2022-09-04T09:30:16.231Z,23.50
2022-09-04T09:33:07.984Z,23.50
2022-09-04T09:35:56.112Z,23.50
2022-09-04T09:38:57.558Z,23.40
2022-09-04T09:41:32.086Z,23.10
2022-09-04T09:44:22.197Z,23.40
2022-09-04T09:47:10.129Z,23.60
2022-09-04T09:50:00.477Z,23.40
2022-09-04T09:52:58.551Z,23.50
2022-09-04T09:55:30.370Z,23.40
2022-09-04T09:58:06.293Z,23.70
2022-09-04T10:01:00.414Z,23.90
2022-09-04T10:04:07.135Z,23.50
2022-09-04T10:06:44.793Z,23.50
2022-09-04T10:09:42.706Z,23.40
2022-09-04T10:12:37.421Z,23.60
2022-09-04T10:15:22.714Z,23.70
2022-09-04T10:18:20.646Z,23.80
2022-09-04T10:21:10.620Z,23.60
2022-09-04T10:23:43.511Z,24.00
2022-09-04T10:26:39.604Z,24.10
2022-09-04T10:29:26.672Z,24.10
2022-09-04T10:32:08.903Z,24.20
2022-09-04T10:35:00.663Z,24.20
2022-09-04T10:38:06.216Z,24.20
2022-09-04T10:41:15.694Z,24.20
2022-09-04T10:43:45.630Z,24.10
2022-09-04T10:46:48.165Z,23.90
2022-09-04T10:49:45.514Z,24.00
2022-09-04T10:52:33.839Z,24.00
2022-09-04T10:55:03.651Z,24.00
2022-09-04T10:57:57.189Z,24.10
2022-09-04T11:00:36.355Z,24.20
2022-09-04T11:03:28.708Z,24.30
2022-09-04T11:06:17.420Z,24.40
2022-09-04T11:08:50.366Z,24.40
2022-09-04T11:11:40.756Z,24.50
2022-09-04T11:14:30.126Z,24.60
2022-09-04T11:17:34.660Z,24.40
2022-09-04T11:20:33.388Z,24.60
2022-09-04T11:23:31.189Z,24.50
2022-09-04T11:26:37.195Z,24.60
2022-09-04T11:29:31.973Z,24.70
2022-09-04T11:32:40.260Z,24.70
2022-09-04T11:35:36.461Z,24.70
2022-09-04T11:38:25.524Z,24.80
2022-09-04T11:41:16.798Z,24.70
2022-09-04T11:44:02.089Z,24.70
2022-09-04T11:46:47.549Z,24.60
2022-09-04T11:49:40.968Z,24.70
2022-09-04T11:52:43.735Z,24.70
2022-09-04T11:55:30.260Z,25.00
2022-09-04T11:58:06.461Z,24.90
2022-09-04T12:01:18.553Z,24.70
2022-09-04T12:04:01.766Z,24.80
2022-09-04T12:07:02.825Z,25.00
2022-09-04T12:09:51.035Z,25.10
2022-09-04T12:12:30.064Z,25.20
2022-09-04T12:15:15.291Z,25.40
2022-09-04T12:18:09.418Z,25.40
2022-09-04T12:20:59.389Z,25.30
2022-09-04T12:24:04.086Z,25.10
2022-09-04T12:26:51.753Z,25.00
2022-09-04T12:29:38.921Z,24.80
2022-09-04T12:32:18.931Z,24.90
2022-09-04T12:35:00.696Z,25.10
2022-09-04T12:37:33.475Z,25.20
2022-09-04T12:40:31.812Z,25.20
2022-09-04T12:43:21.539Z,25.20
2022-09-04T12:46:14.578Z,25.20
2022-09-04T12:49:00.642Z,25.20
2022-09-04T12:51:31.732Z,25.10
2022-09-04T12:54:11.005Z,25.10
2022-09-04T12:56:48.999Z,25.10
2022-09-04T12:59:55.230Z,25.10
2022-09-04T13:02:38.039Z,25.10
2022-09-04T13:05:30.593Z,25.00
2022-09-04T13:08:26.499Z,25.00
2022-09-04T13:11:05.204Z,25.00
2022-09-04T13:13:46.177Z,25.00
2022-09-04T13:16:37.246Z,25.00
2022-09-04T13:19:39.836Z,25.20
2022-09-04T13:22:10.532Z,25.30
2022-09-04T13:25:00.616Z,25.40
2022-09-04T13:27:49.305Z,25.50
2022-09-04T13:30:22.056Z,25.40
2022-09-04T13:33:07.157Z,25.40
2022-09-04T13:35:59.800Z,25.40
2022-09-04T13:38:55.349Z,25.50
2022-09-04T13:41:57.038Z,25.50
2022-09-04T13:44:56.976Z,25.70
2022-09-04T13:47:31.919Z,25.80
2022-09-04T13:50:23.705Z,26.00
2022-09-04T13:53:16.626Z,25.90
2022-09-04T13:56:08.166Z,25.80
2022-09-04T13:58:39.001Z,25.60
2022-09-04T14:01:12.229Z,25.60
2022-09-04T14:03:48.795Z,25.60
2022-09-04T14:06:17.171Z,25.60
2022-09-04T14:08:45.270Z,25.50
2022-09-04T14:12:00.895Z,25.50
2022-09-04T14:15:00.428Z,25.50
2022-09-04T14:17:38.122Z,25.50
2022-09-04T14:20:16.087Z,25.60
2022-09-04T14:22:49.604Z,25.80
2022-09-04T14:25:38.053Z,25.80
2022-09-04T14:28:22.366Z,25.80
2022-09-04T14:30:52.791Z,25.80
2022-09-04T14:33:54.250Z,25.80
2022-09-04T14:36:56.672Z,26.00
2022-09-04T14:39:55.473Z,26.00
2022-09-04T14:42:47.925Z,25.90
2022-09-04T14:45:30.338Z,25.80
2022-09-04T14:48:00.229Z,25.80
2022-09-04T14:50:31.116Z,25.80
2022-09-04T14:53:03.954Z,25.70
2022-09-04T14:55:33.041Z,25.70
2022-09-04T14:58:20.205Z,25.70
2022-09-04T15:01:03.080Z,25.70
2022-09-04T15:04:04.040Z,25.80
2022-09-04T15:07:09.774Z,25.70
2022-09-04T15:09:38.040Z,25.70
2022-09-04T15:12:25.003Z,25.60
2022-09-04T15:15:04.177Z,25.50
2022-09-04T15:17:31.142Z,25.50
2022-09-04T15:20:02.161Z,25.50
2022-09-04T15:22:40.917Z,25.50
2022-09-04T15:25:56.705Z,25.40
2022-09-04T15:28:30.232Z,25.40
2022-09-04T15:31:16.742Z,25.40
2022-09-04T15:33:45.720Z,25.30
2022-09-04T15:36:21.040Z,25.30
2022-09-04T15:38:51.366Z,25.40
2022-09-04T15:41:23.989Z,25.40
2022-09-04T15:43:53.957Z,25.30
2022-09-04T15:46:33.198Z,25.20
2022-09-04T15:49:13.441Z,25.20
2022-09-04T15:51:47.539Z,25.30
2022-09-04T15:54:21.825Z,25.30
2022-09-04T15:56:57.561Z,25.30
2022-09-04T15:59:28.515Z,25.30
2022-09-04T16:01:55.402Z,25.20
2022-09-04T16:04:42.759Z,25.20
2022-09-04T16:07:20.194Z,25.20
2022-09-04T16:09:49.122Z,25.30
2022-09-04T16:12:17.494Z,25.30
2022-09-04T16:14:49.179Z,25.20
2022-09-04T16:17:25.310Z,25.20
2022-09-04T16:20:00.424Z,25.10
2022-09-04T16:22:44.016Z,25.10
2022-09-04T16:25:31.165Z,25.10
2022-09-04T16:28:10.461Z,25.10
2022-09-04T16:30:43.379Z,25.10
2022-09-04T16:33:33.389Z,25.20
2022-09-04T16:36:14.007Z,25.20
2022-09-04T16:38:57.634Z,25.20
2022-09-04T16:41:29.623Z,25.20
2022-09-04T16:44:14.778Z,25.20
2022-09-04T16:47:10.663Z,25.20
2022-09-04T16:50:14.941Z,25.30
2022-09-04T16:52:41.938Z,25.20
2022-09-04T16:55:27.236Z,25.20
2022-09-04T16:58:07.538Z,25.30
2022-09-04T17:01:13.870Z,25.20
2022-09-04T17:04:13.669Z,25.20
2022-09-04T17:07:03.160Z,25.20
2022-09-04T17:09:44.873Z,25.20
2022-09-04T17:12:24.773Z,25.20
2022-09-04T17:15:00.341Z,25.20
2022-09-04T17:17:31.955Z,25.10
2022-09-04T17:20:13.124Z,25.10
2022-09-04T17:28:58.137Z,25.10
2022-09-04T17:29:08.242Z,25.00
2022-09-04T17:29:29.653Z,25.00
2022-09-04T17:31:55.986Z,25.00
2022-09-04T17:40:32.878Z,24.90
2022-09-04T17:40:51.618Z,24.90
2022-09-04T17:44:04.199Z,24.80
2022-09-04T17:46:32.928Z,24.70
2022-09-04T17:49:00.475Z,24.70
2022-09-04T17:51:29.378Z,24.60
2022-09-04T17:53:58.852Z,24.60
2022-09-04T17:56:33.188Z,24.60
2022-09-04T17:59:17.728Z,24.50
2022-09-04T18:01:50.598Z,24.40
2022-09-04T18:04:37.635Z,24.30
2022-09-04T18:08:07.615Z,24.20
2022-09-04T18:10:31.833Z,24.10
2022-09-04T18:13:01.954Z,24.00
2022-09-04T18:15:34.941Z,24.00
2022-09-04T18:18:37.690Z,24.00
2022-09-04T18:21:26.967Z,24.00
2022-09-04T18:24:10.490Z,23.90
2022-09-04T18:27:11.603Z,23.80
2022-09-04T18:31:25.781Z,23.80
2022-09-04T18:37:18.981Z,23.70
2022-09-04T18:37:25.486Z,23.70
2022-09-04T18:39:09.730Z,23.70
2022-09-04T18:50:20.270Z,23.70
2022-09-04T18:50:28.539Z,23.70
2022-09-04T18:50:30.120Z,23.60
2022-09-04T18:51:04.374Z,23.60
2022-09-04T18:53:50.692Z,23.50
2022-09-04T18:56:33.210Z,23.50
2022-09-04T18:59:10.641Z,23.40
2022-09-04T19:01:42.943Z,23.30
2022-09-04T19:04:18.960Z,23.30
2022-09-04T19:07:08.085Z,23.20
2022-09-04T19:10:12.420Z,23.20
2022-09-04T19:12:50.423Z,23.10
2022-09-04T19:15:37.696Z,23.10
2022-09-04T19:18:30.535Z,23.20
2022-09-04T19:21:23.376Z,23.10
2022-09-04T19:24:22.231Z,23.00
2022-09-04T19:26:55.129Z,22.90
2022-09-04T19:29:28.975Z,22.80
2022-09-04T19:32:08.077Z,22.80
2022-09-04T19:35:03.174Z,22.80
2022-09-04T19:42:12.873Z,22.90
2022-09-04T19:45:57.876Z,22.80
2022-09-04T19:46:19.900Z,22.70
2022-09-04T19:47:28.718Z,22.80
2022-09-04T19:53:23.099Z,22.70
2022-09-04T19:53:48.533Z,22.70
2022-09-04T19:56:42.400Z,22.60
2022-09-04T19:59:21.281Z,22.50
2022-09-04T20:02:03.080Z,22.50
2022-09-04T20:04:47.109Z,22.50
2022-09-04T20:07:42.950Z,22.40
2022-09-04T20:10:23.112Z,22.40
2022-09-04T20:13:15.834Z,22.40
2022-09-04T20:15:44.416Z,22.40
2022-09-04T20:18:18.446Z,22.40
2022-09-04T20:21:07.856Z,22.30
2022-09-04T20:23:43.918Z,22.30
2022-09-04T20:26:13.585Z,22.30
2022-09-04T20:29:10.930Z,22.30
2022-09-04T20:32:06.208Z,22.30
2022-09-04T20:34:42.389Z,22.20
2022-09-04T20:37:22.687Z,22.20
2022-09-04T20:40:14.326Z,22.10
2022-09-04T20:43:03.186Z,22.00
2022-09-04T20:47:51.900Z,22.00
2022-09-04T20:52:55.451Z,22.00
2022-09-04T20:52:58.851Z,21.80
2022-09-04T20:54:28.440Z,21.70
2022-09-04T20:59:07.576Z,21.80
2022-09-04T21:03:23.856Z,21.70
2022-09-04T21:03:37.418Z,21.70
2022-09-04T21:06:16.611Z,21.60
2022-09-04T21:08:53.894Z,21.50
2022-09-04T21:11:41.325Z,21.50
2022-09-04T21:14:28.646Z,21.50
2022-09-04T21:17:34.489Z,21.50
2022-09-04T21:20:34.628Z,21.30
2022-09-04T21:23:10.331Z,21.20
2022-09-04T21:25:42.343Z,21.20
2022-09-04T21:28:32.231Z,21.30
2022-09-04T21:31:09.755Z,21.30
2022-09-04T21:34:31.697Z,21.20
2022-09-04T21:37:30.477Z,21.20
2022-09-04T21:40:51.549Z,21.10
2022-09-04T21:43:38.537Z,21.00
2022-09-04T21:46:52.873Z,21.10
2022-09-04T21:50:13.472Z,21.10
2022-09-04T21:53:24.960Z,21.00
2022-09-04T21:59:41.180Z,20.90
2022-09-04T22:02:41.884Z,20.90
2022-09-04T22:03:22.187Z,20.80
2022-09-04T22:06:42.522Z,20.80
2022-09-04T22:13:37.377Z,20.90
2022-09-04T22:13:46.417Z,20.90
2022-09-04T22:16:29.180Z,20.70
2022-09-04T22:19:45.179Z,20.80
2022-09-04T22:23:05.275Z,20.60
2022-09-04T22:26:23.030Z,20.50
2022-09-04T22:29:11.587Z,20.60
2022-09-04T22:31:51.988Z,20.60
2022-09-04T22:35:07.880Z,20.60
2022-09-04T22:38:08.946Z,20.50
2022-09-04T22:40:56.468Z,20.40
2022-09-04T22:43:25.411Z,20.30
2022-09-04T22:46:39.785Z,20.40
2022-09-04T22:49:57.349Z,20.40
2022-09-04T22:52:47.388Z,20.30
2022-09-04T22:56:05.271Z,20.40
2022-09-04T22:58:47.884Z,20.40
2022-09-04T23:01:44.775Z,20.20
2022-09-04T23:04:36.758Z,20.30
2022-09-04T23:12:26.806Z,20.30
2022-09-04T23:13:49.987Z,20.20
2022-09-04T23:14:08.836Z,20.20
2022-09-04T23:17:13.866Z,20.20
2022-09-04T23:26:34.809Z,20.10
2022-09-04T23:26:42.064Z,20.00
2022-09-04T23:26:47.351Z,20.00
2022-09-04T23:28:51.711Z,19.90
2022-09-04T23:31:37.556Z,19.90
2022-09-04T23:34:20.319Z,19.90
2022-09-04T23:37:07.371Z,19.80
2022-09-04T23:39:50.970Z,19.70
2022-09-04T23:42:39.311Z,19.70
2022-09-04T23:45:25.749Z,19.70
2022-09-04T23:48:17.353Z,19.70
2022-09-04T23:50:49.469Z,19.80
2022-09-04T23:53:34.960Z,19.70
2022-09-04T23:56:14.204Z,19.60
2022-09-04T23:59:33.583Z,19.50
